createdAt,value
2019-01-31T00:00:17.040Z,993.31
2019-01-31T00:01:22.541Z,993.34
2019-01-31T00:03:20.927Z,993.37
2019-01-31T00:04:26.450Z,993.30
2019-01-31T00:06:24.849Z,993.29
2019-01-31T00:07:30.363Z,993.26
2019-01-31T00:09:28.750Z,993.24
2019-01-31T00:10:34.278Z,993.23
2019-01-31T00:12:32.676Z,993.25
2019-01-31T00:13:38.193Z,993.26
2019-01-31T00:15:36.578Z,993.24
2019-01-31T00:16:42.100Z,993.23
2019-01-31T00:18:40.503Z,993.23
2019-01-31T00:19:46.014Z,993.21
2019-01-31T00:21:44.400Z,993.15
2019-01-31T00:22:49.925Z,993.18
2019-01-31T00:24:49.051Z,993.17
2019-01-31T00:25:54.560Z,993.16
2019-01-31T00:27:53.463Z,993.16
2019-01-31T00:28:58.968Z,993.12
2019-01-31T00:30:57.354Z,993.18
2019-01-31T00:32:02.876Z,993.19
2019-01-31T00:34:01.279Z,993.19
2019-01-31T00:35:06.784Z,993.15
2019-01-31T00:37:05.170Z,993.17
2019-01-31T00:38:10.698Z,993.17
2019-01-31T00:40:09.099Z,993.16
2019-01-31T00:41:14.621Z,993.19
2019-01-31T00:43:13.001Z,993.21
2019-01-31T00:44:18.528Z,993.20
2019-01-31T00:46:16.928Z,993.24
2019-01-31T00:47:22.427Z,993.24
2019-01-31T00:49:20.822Z,993.20
2019-01-31T00:50:26.342Z,993.25
2019-01-31T00:52:24.747Z,993.25
2019-01-31T00:53:30.254Z,993.25
2019-01-31T00:55:28.657Z,993.23
2019-01-31T00:56:34.176Z,993.30
2019-01-31T00:58:32.581Z,993.22
2019-01-31T00:59:38.089Z,993.23
2019-01-31T01:01:36.488Z,993.24
2019-01-31T01:02:42.003Z,993.22
2019-01-31T01:04:40.387Z,993.25
2019-01-31T01:05:45.911Z,993.27
2019-01-31T01:07:44.812Z,993.25
2019-01-31T01:08:50.319Z,993.30
2019-01-31T01:10:48.702Z,993.31
2019-01-31T01:11:54.234Z,993.29
2019-01-31T01:13:52.638Z,993.32
2019-01-31T01:14:58.139Z,993.34
2019-01-31T01:16:56.538Z,993.35
2019-01-31T01:18:02.062Z,993.39
2019-01-31T01:20:00.458Z,993.33
2019-01-31T01:21:05.967Z,993.36
2019-01-31T01:23:04.851Z,993.34
2019-01-31T01:24:10.375Z,993.38
2019-01-31T01:26:08.778Z,993.36
2019-01-31T01:27:14.290Z,993.38
2019-01-31T01:29:12.694Z,993.43
2019-01-31T01:30:18.366Z,993.39
2019-01-31T01:32:16.590Z,993.32
2019-01-31T01:33:22.113Z,993.34
2019-01-31T01:35:20.520Z,993.34
2019-01-31T01:36:26.029Z,993.35
2019-01-31T01:38:24.423Z,993.40
2019-01-31T01:39:29.942Z,993.34
2019-01-31T01:41:28.349Z,993.36
2019-01-31T01:42:33.858Z,993.38
2019-01-31T01:44:32.250Z,993.36
2019-01-31T01:45:37.851Z,993.41
2019-01-31T01:47:36.206Z,993.41
2019-01-31T01:48:41.686Z,993.40
2019-01-31T01:50:40.071Z,993.36
2019-01-31T01:51:45.600Z,993.42
2019-01-31T01:53:43.998Z,993.40
2019-01-31T01:54:49.511Z,993.40
2019-01-31T01:56:47.915Z,993.37
2019-01-31T01:57:53.425Z,993.40
2019-01-31T01:59:51.811Z,993.38
2019-01-31T02:00:57.335Z,993.41
2019-01-31T02:02:55.736Z,993.44
2019-01-31T02:04:01.250Z,993.47
2019-01-31T02:05:59.637Z,993.44
2019-01-31T02:07:05.157Z,993.48
2019-01-31T02:09:03.560Z,993.45
2019-01-31T02:10:09.074Z,993.44
2019-01-31T02:12:07.484Z,993.45
2019-01-31T02:13:12.987Z,993.48
2019-01-31T02:15:11.373Z,993.48
2019-01-31T02:16:16.895Z,993.45
2019-01-31T02:18:15.298Z,993.44
2019-01-31T02:19:20.809Z,993.44
2019-01-31T02:21:19.694Z,993.43
2019-01-31T02:22:25.219Z,993.41
2019-01-31T02:24:23.622Z,993.43
2019-01-31T02:25:29.133Z,993.44
2019-01-31T02:27:27.518Z,993.48
2019-01-31T02:28:33.037Z,993.49
2019-01-31T02:30:31.446Z,993.43
2019-01-31T02:31:36.953Z,993.45
2019-01-31T02:33:35.348Z,993.43
2019-01-31T02:34:40.872Z,993.46
2019-01-31T02:36:39.271Z,993.43
2019-01-31T02:37:44.783Z,993.48
2019-01-31T02:39:43.548Z,993.45
2019-01-31T02:40:48.697Z,993.44
2019-01-31T02:42:47.083Z,993.53
2019-01-31T02:43:52.607Z,993.50
2019-01-31T02:45:51.012Z,993.56
2019-01-31T02:46:56.519Z,993.49
2019-01-31T02:48:54.907Z,993.57
2019-01-31T02:50:00.561Z,993.56
2019-01-31T02:51:58.845Z,993.55
2019-01-31T02:53:04.349Z,993.54
2019-01-31T02:55:02.740Z,993.53
2019-01-31T02:56:08.263Z,993.56
2019-01-31T02:58:06.667Z,993.54
2019-01-31T02:59:12.175Z,993.56
2019-01-31T03:01:10.675Z,993.56
2019-01-31T03:02:16.090Z,993.54
2019-01-31T03:04:14.987Z,993.55
2019-01-31T03:05:20.507Z,993.55
2019-01-31T03:07:18.908Z,993.51
2019-01-31T03:08:24.491Z,993.50
2019-01-31T03:10:23.294Z,993.48
2019-01-31T03:11:28.822Z,993.51
2019-01-31T03:13:27.221Z,993.53
2019-01-31T03:14:32.734Z,993.49
2019-01-31T03:16:31.180Z,993.50
2019-01-31T03:17:36.648Z,993.49
2019-01-31T03:19:35.055Z,993.53
2019-01-31T03:20:40.566Z,993.56
2019-01-31T03:22:39.465Z,993.60
2019-01-31T03:23:44.970Z,993.59
2019-01-31T03:25:43.356Z,993.60
2019-01-31T03:26:48.881Z,993.57
2019-01-31T03:28:47.283Z,993.55
2019-01-31T03:29:52.790Z,993.55
2019-01-31T03:31:51.185Z,993.59
2019-01-31T03:32:56.704Z,993.59
2019-01-31T03:34:55.106Z,993.57
2019-01-31T03:36:00.615Z,993.59
2019-01-31T03:37:59.006Z,993.62
2019-01-31T03:39:04.531Z,993.63
2019-01-31T03:41:02.933Z,993.64
2019-01-31T03:42:08.449Z,993.64
2019-01-31T03:44:06.832Z,993.62
2019-01-31T03:45:12.359Z,993.61
2019-01-31T03:47:10.753Z,993.62
2019-01-31T03:48:16.267Z,993.59
2019-01-31T03:50:14.669Z,993.61
2019-01-31T03:51:20.179Z,993.67
2019-01-31T03:53:18.571Z,993.63
2019-01-31T03:54:24.091Z,993.63
2019-01-31T03:56:22.495Z,993.65
2019-01-31T03:57:28.009Z,993.64
2019-01-31T03:59:26.394Z,993.64
2019-01-31T04:00:31.926Z,993.71
2019-01-31T04:02:30.327Z,993.70
2019-01-31T04:03:35.837Z,993.75
2019-01-31T04:05:34.221Z,993.74
2019-01-31T04:06:39.749Z,993.73
2019-01-31T04:08:38.152Z,993.71
2019-01-31T04:09:43.668Z,993.72
2019-01-31T04:11:42.072Z,993.76
2019-01-31T04:12:47.574Z,993.78
2019-01-31T04:14:45.963Z,993.78
2019-01-31T04:15:51.488Z,993.79
2019-01-31T04:17:49.898Z,993.80
2019-01-31T04:18:55.400Z,993.87
2019-01-31T04:20:53.789Z,993.80
2019-01-31T04:21:59.314Z,993.84
2019-01-31T04:23:57.715Z,993.81
2019-01-31T04:25:03.226Z,993.83
2019-01-31T04:27:01.619Z,993.87
2019-01-31T04:28:07.144Z,993.88
2019-01-31T04:30:05.555Z,993.89
2019-01-31T04:31:11.051Z,993.91
2019-01-31T04:33:09.444Z,993.96
2019-01-31T04:34:14.976Z,993.93
2019-01-31T04:36:13.371Z,993.89
2019-01-31T04:37:18.884Z,993.96
2019-01-31T04:39:17.270Z,994.02
2019-01-31T04:40:30.819Z,994.02
2019-01-31T04:42:21.196Z,994.01
2019-01-31T04:43:26.708Z,994.04
2019-01-31T04:45:25.100Z,994.07
2019-01-31T04:46:30.627Z,994.01
2019-01-31T04:48:29.024Z,994.05
2019-01-31T04:49:34.539Z,994.01
2019-01-31T04:51:32.926Z,994.05
2019-01-31T04:52:38.451Z,994.03
2019-01-31T04:54:36.852Z,994.09
2019-01-31T04:55:42.360Z,994.11
2019-01-31T04:57:40.752Z,994.16
2019-01-31T04:58:46.274Z,994.17
2019-01-31T05:00:44.681Z,994.21
2019-01-31T05:01:50.186Z,994.26
2019-01-31T05:03:48.577Z,994.26
2019-01-31T05:04:54.103Z,994.33
2019-01-31T05:06:52.716Z,994.31
2019-01-31T05:07:58.016Z,994.32
2019-01-31T05:09:56.408Z,994.40
2019-01-31T05:11:01.927Z,994.40
2019-01-31T05:13:00.338Z,994.36
2019-01-31T05:14:05.839Z,994.41
2019-01-31T05:16:04.440Z,994.42
2019-01-31T05:17:09.747Z,994.41
2019-01-31T05:19:08.154Z,994.42
2019-01-31T05:20:13.666Z,994.44
2019-01-31T05:22:12.058Z,994.44
2019-01-31T05:23:17.580Z,994.44
2019-01-31T05:25:16.011Z,994.46
2019-01-31T05:26:21.492Z,994.47
2019-01-31T05:28:19.880Z,994.42
2019-01-31T05:29:25.404Z,994.46
2019-01-31T05:31:23.830Z,994.48
2019-01-31T05:32:29.319Z,994.48
2019-01-31T05:34:27.710Z,994.52
2019-01-31T05:35:33.230Z,994.50
2019-01-31T05:37:31.631Z,994.53
2019-01-31T05:38:37.146Z,994.53
2019-01-31T05:40:35.587Z,994.50
2019-01-31T05:41:41.052Z,994.49
2019-01-31T05:43:40.307Z,994.50
2019-01-31T05:44:45.815Z,994.55
2019-01-31T05:46:44.201Z,994.54
2019-01-31T05:47:49.731Z,994.56
2019-01-31T05:49:48.128Z,994.58
2019-01-31T05:50:53.643Z,994.64
2019-01-31T05:52:52.032Z,994.61
2019-01-31T05:53:57.557Z,994.63
2019-01-31T05:55:55.967Z,994.57
2019-01-31T05:57:01.469Z,994.56
2019-01-31T05:58:59.856Z,994.60
2019-01-31T06:00:05.388Z,994.61
2019-01-31T06:02:03.785Z,994.63
2019-01-31T06:03:09.297Z,994.59
2019-01-31T06:05:07.688Z,994.62
2019-01-31T06:06:13.212Z,994.66
2019-01-31T06:08:11.617Z,994.61
2019-01-31T06:09:17.126Z,994.55
2019-01-31T06:11:15.509Z,994.55
2019-01-31T06:12:21.036Z,994.49
2019-01-31T06:14:19.441Z,994.56
2019-01-31T06:15:24.951Z,994.61
2019-01-31T06:17:23.337Z,994.63
2019-01-31T06:18:28.863Z,994.70
2019-01-31T06:20:27.271Z,994.68
2019-01-31T06:21:32.773Z,994.73
2019-01-31T06:23:31.162Z,994.69
2019-01-31T06:26:08.262Z,994.76
2019-01-31T06:27:13.773Z,994.73
2019-01-31T06:29:12.175Z,994.74
2019-01-31T06:30:17.686Z,994.76
2019-01-31T06:32:16.096Z,994.78
2019-01-31T06:33:21.601Z,994.82
2019-01-31T06:35:19.985Z,994.82
2019-01-31T06:36:25.510Z,994.80
2019-01-31T06:38:23.931Z,994.80
2019-01-31T06:39:29.423Z,994.83
2019-01-31T06:41:27.811Z,994.87
2019-01-31T06:42:33.336Z,994.87
2019-01-31T06:44:31.747Z,994.89
2019-01-31T06:45:37.253Z,994.85
2019-01-31T06:47:35.638Z,994.91
2019-01-31T06:48:41.167Z,994.89
2019-01-31T06:50:39.574Z,994.91
2019-01-31T06:51:45.186Z,994.89
2019-01-31T06:53:43.461Z,994.97
2019-01-31T06:54:48.988Z,994.97
2019-01-31T06:56:47.393Z,995.00
2019-01-31T06:57:52.900Z,994.96
2019-01-31T06:59:51.523Z,994.96
2019-01-31T07:00:57.047Z,994.97
2019-01-31T07:02:56.306Z,995.01
2019-01-31T07:04:01.812Z,995.02
2019-01-31T07:06:00.198Z,995.04
2019-01-31T07:07:05.722Z,995.02
2019-01-31T07:09:04.125Z,995.03
2019-01-31T07:10:09.639Z,995.07
2019-01-31T07:12:08.032Z,995.05
2019-01-31T07:13:13.554Z,995.04
2019-01-31T07:15:11.960Z,995.05
2019-01-31T07:16:17.463Z,995.08
2019-01-31T07:18:15.852Z,995.07
2019-01-31T07:19:21.374Z,995.06
2019-01-31T07:21:19.778Z,995.07
2019-01-31T07:22:25.289Z,995.08
2019-01-31T07:24:23.677Z,995.08
2019-01-31T07:25:29.197Z,995.04
2019-01-31T07:27:27.612Z,995.04
2019-01-31T07:28:33.115Z,995.10
2019-01-31T07:30:31.507Z,995.07
2019-01-31T07:31:37.029Z,995.13
2019-01-31T07:33:35.433Z,995.14
2019-01-31T07:34:40.943Z,995.09
2019-01-31T07:36:39.330Z,995.13
2019-01-31T07:37:44.857Z,995.13
2019-01-31T07:39:43.260Z,995.13
2019-01-31T07:40:48.764Z,995.10
2019-01-31T07:42:47.161Z,995.17
2019-01-31T07:43:52.681Z,995.15
2019-01-31T07:45:51.083Z,995.16
2019-01-31T07:46:56.597Z,995.14
2019-01-31T07:48:54.986Z,995.22
2019-01-31T07:50:00.512Z,995.26
2019-01-31T07:51:58.922Z,995.23
2019-01-31T07:53:04.423Z,995.25
2019-01-31T07:55:02.827Z,995.20
2019-01-31T07:56:08.335Z,995.22
2019-01-31T07:58:06.735Z,995.20
2019-01-31T07:59:12.247Z,995.18
2019-01-31T08:01:10.635Z,995.17
2019-01-31T08:02:16.160Z,995.24
2019-01-31T08:04:14.563Z,995.19
2019-01-31T08:05:20.072Z,995.24
2019-01-31T08:07:18.464Z,995.22
2019-01-31T08:08:23.990Z,995.18
2019-01-31T08:10:22.401Z,995.28
2019-01-31T08:11:27.903Z,995.24
2019-01-31T08:13:26.413Z,995.27
2019-01-31T08:14:31.818Z,995.28
2019-01-31T08:16:30.220Z,995.31
2019-01-31T08:17:35.731Z,995.34
2019-01-31T08:19:34.362Z,995.29
2019-01-31T08:20:39.885Z,995.35
2019-01-31T08:22:38.296Z,995.37
2019-01-31T08:23:43.812Z,995.39
2019-01-31T08:25:42.189Z,995.40
2019-01-31T08:26:47.718Z,995.44
2019-01-31T08:28:46.123Z,995.49
2019-01-31T08:29:51.635Z,995.49
2019-01-31T08:31:50.030Z,995.53
2019-01-31T08:32:56.103Z,995.58
2019-01-31T08:34:53.954Z,995.54
2019-01-31T08:35:59.466Z,995.55
2019-01-31T08:37:57.849Z,995.60
2019-01-31T08:39:03.380Z,995.53
2019-01-31T08:41:01.776Z,995.62
2019-01-31T08:42:07.290Z,995.53
2019-01-31T08:44:05.677Z,995.57
2019-01-31T08:45:11.203Z,995.57
2019-01-31T08:47:09.608Z,995.62
2019-01-31T08:48:15.119Z,995.61
2019-01-31T08:50:13.506Z,995.65
2019-01-31T08:51:19.028Z,995.70
2019-01-31T08:53:17.431Z,995.71
2019-01-31T08:54:22.942Z,995.75
2019-01-31T08:56:21.397Z,995.76
2019-01-31T08:57:26.861Z,995.75
2019-01-31T08:59:25.249Z,995.76
2019-01-31T09:00:30.775Z,995.79
2019-01-31T09:02:29.176Z,995.82
2019-01-31T09:03:34.683Z,995.83
2019-01-31T09:05:33.069Z,995.83
2019-01-31T09:06:38.602Z,995.81
2019-01-31T09:08:37.004Z,995.88
2019-01-31T09:09:42.513Z,995.86
2019-01-31T09:11:40.902Z,995.85
2019-01-31T09:12:46.425Z,995.85
2019-01-31T09:14:44.841Z,995.86
2019-01-31T09:15:50.340Z,995.92
2019-01-31T09:17:48.736Z,995.92
2019-01-31T09:18:54.253Z,995.90
2019-01-31T09:20:52.675Z,995.91
2019-01-31T09:21:58.173Z,995.92
2019-01-31T09:23:56.566Z,995.96
2019-01-31T09:25:02.087Z,995.98
2019-01-31T09:27:00.601Z,996.00
2019-01-31T09:28:06.105Z,995.98
2019-01-31T09:30:04.725Z,995.96
2019-01-31T09:31:10.018Z,995.97
2019-01-31T09:33:08.521Z,995.97
2019-01-31T09:34:13.931Z,995.94
2019-01-31T09:36:12.321Z,995.99
2019-01-31T09:37:17.845Z,996.00
2019-01-31T09:39:16.255Z,996.02
2019-01-31T09:40:21.757Z,996.03
2019-01-31T09:42:26.726Z,996.00
2019-01-31T09:43:25.676Z,996.00
2019-01-31T09:46:56.492Z,996.03
2019-01-31T09:48:01.999Z,996.03
2019-01-31T09:50:00.391Z,996.04
2019-01-31T09:51:05.933Z,996.00
2019-01-31T09:53:04.325Z,996.02
2019-01-31T09:54:09.835Z,996.04
2019-01-31T09:56:08.223Z,996.02
2019-01-31T09:57:13.751Z,996.09
2019-01-31T09:59:12.155Z,996.09
2019-01-31T10:00:27.118Z,996.08
2019-01-31T10:02:16.065Z,996.08
2019-01-31T10:03:21.585Z,996.09
2019-01-31T10:05:19.998Z,996.13
2019-01-31T10:06:25.509Z,996.16
2019-01-31T10:08:23.890Z,996.15
2019-01-31T10:09:29.421Z,996.15
2019-01-31T10:11:27.903Z,996.14
2019-01-31T10:12:38.273Z,996.21
2019-01-31T10:14:31.780Z,996.21
2019-01-31T10:15:37.276Z,996.24
2019-01-31T10:17:35.680Z,996.24
2019-01-31T10:18:41.176Z,996.27
2019-01-31T10:20:39.557Z,996.24
2019-01-31T10:21:45.150Z,996.25
2019-01-31T10:23:43.509Z,996.25
2019-01-31T10:24:49.019Z,996.26
2019-01-31T10:26:47.385Z,996.25
2019-01-31T10:27:52.912Z,996.26
2019-01-31T10:29:53.022Z,996.25
2019-01-31T10:30:56.828Z,996.24
2019-01-31T10:32:55.216Z,996.25
2019-01-31T10:34:00.744Z,996.20
2019-01-31T10:35:59.151Z,996.21
2019-01-31T10:37:04.656Z,996.22
2019-01-31T10:39:03.897Z,996.21
2019-01-31T10:40:09.424Z,996.26
2019-01-31T10:42:07.838Z,996.22
2019-01-31T10:43:13.343Z,996.20
2019-01-31T10:45:11.736Z,996.23
2019-01-31T10:46:17.267Z,996.19
2019-01-31T10:48:15.659Z,996.21
2019-01-31T10:49:21.182Z,996.19
2019-01-31T10:51:19.570Z,996.23
2019-01-31T10:52:25.097Z,996.20
2019-01-31T10:54:23.502Z,996.21
2019-01-31T10:55:29.015Z,996.22
2019-01-31T10:57:27.412Z,996.21
2019-01-31T10:58:32.934Z,996.24
2019-01-31T11:00:31.343Z,996.23
2019-01-31T11:01:36.851Z,996.25
2019-01-31T11:03:35.242Z,996.23
2019-01-31T11:04:40.767Z,996.21
2019-01-31T11:06:39.172Z,996.24
2019-01-31T11:07:44.683Z,996.23
2019-01-31T11:09:43.115Z,996.30
2019-01-31T11:10:48.614Z,996.30
2019-01-31T11:12:47.008Z,996.30
2019-01-31T11:13:52.537Z,996.31
2019-01-31T11:15:50.941Z,996.28
2019-01-31T11:16:56.454Z,996.31
2019-01-31T11:18:55.138Z,996.29
2019-01-31T11:20:00.372Z,996.30
2019-01-31T11:21:58.782Z,996.29
2019-01-31T11:23:04.295Z,996.28
2019-01-31T11:25:02.694Z,996.24
2019-01-31T11:26:08.225Z,996.26
2019-01-31T11:28:06.622Z,996.27
2019-01-31T11:29:12.137Z,996.27
2019-01-31T11:31:10.531Z,996.27
2019-01-31T11:32:16.063Z,996.29
2019-01-31T11:34:14.469Z,996.30
2019-01-31T11:35:19.980Z,996.30
2019-01-31T11:37:18.377Z,996.33
2019-01-31T11:38:23.905Z,996.24
2019-01-31T11:40:22.309Z,996.32
2019-01-31T11:41:27.824Z,996.28
2019-01-31T11:43:26.219Z,996.32
2019-01-31T11:44:31.749Z,996.26
2019-01-31T11:46:30.148Z,996.29
2019-01-31T11:47:35.669Z,996.26
2019-01-31T11:49:34.086Z,996.31
2019-01-31T11:50:39.590Z,996.33
2019-01-31T11:52:37.987Z,996.31
2019-01-31T11:53:43.520Z,996.27
2019-01-31T11:55:41.926Z,996.21
2019-01-31T11:56:47.440Z,996.28
2019-01-31T11:58:45.831Z,996.28
2019-01-31T11:59:51.362Z,996.26
2019-01-31T12:01:49.764Z,996.27
2019-01-31T12:02:55.431Z,996.29
2019-01-31T12:04:53.672Z,996.24
2019-01-31T12:05:59.205Z,996.29
2019-01-31T12:07:57.602Z,996.30
2019-01-31T12:09:03.126Z,996.23
2019-01-31T12:11:01.528Z,996.21
2019-01-31T12:12:07.047Z,996.23
2019-01-31T12:14:06.283Z,996.25
2019-01-31T12:15:11.930Z,996.25
2019-01-31T12:17:10.232Z,996.23
2019-01-31T12:18:15.741Z,996.20
2019-01-31T12:20:14.140Z,996.23
2019-01-31T12:21:19.662Z,996.22
2019-01-31T12:23:18.067Z,996.24
2019-01-31T12:24:23.578Z,996.19
2019-01-31T12:26:21.989Z,996.23
2019-01-31T12:27:27.495Z,996.21
2019-01-31T12:29:25.894Z,996.19
2019-01-31T12:30:31.416Z,996.18
2019-01-31T12:32:29.826Z,996.16
2019-01-31T12:33:35.346Z,996.20
2019-01-31T12:35:34.590Z,996.16
2019-01-31T12:36:40.116Z,996.15
2019-01-31T12:38:38.522Z,996.19
2019-01-31T12:39:44.040Z,996.18
2019-01-31T12:41:42.441Z,996.18
2019-01-31T12:42:47.960Z,996.15
2019-01-31T12:44:46.596Z,996.21
2019-01-31T12:45:52.121Z,996.19
2019-01-31T12:47:50.535Z,996.15
2019-01-31T12:48:56.052Z,996.16
2019-01-31T12:50:54.462Z,996.16
2019-01-31T12:51:59.973Z,996.19
2019-01-31T12:53:58.368Z,996.20
2019-01-31T12:55:03.899Z,996.20
2019-01-31T12:57:02.305Z,996.23
2019-01-31T12:58:08.363Z,996.18
2019-01-31T13:00:06.704Z,996.14
2019-01-31T13:01:12.230Z,996.15
2019-01-31T13:03:10.640Z,996.15
2019-01-31T13:04:16.156Z,996.14
2019-01-31T13:06:14.564Z,996.16
2019-01-31T13:07:20.070Z,996.12
2019-01-31T13:09:18.471Z,996.18
2019-01-31T13:10:23.998Z,996.19
2019-01-31T13:12:22.414Z,996.17
2019-01-31T13:13:27.921Z,996.21
2019-01-31T13:15:26.315Z,996.17
2019-01-31T13:16:31.835Z,996.16
2019-01-31T13:18:30.250Z,996.19
2019-01-31T13:19:35.761Z,996.15
2019-01-31T13:21:35.020Z,996.18
2019-01-31T13:22:40.534Z,996.19
2019-01-31T13:24:38.925Z,996.16
2019-01-31T13:25:44.454Z,996.16
2019-01-31T13:27:42.865Z,996.18
2019-01-31T13:28:48.377Z,996.20
2019-01-31T13:30:46.770Z,996.21
2019-01-31T13:31:52.294Z,996.22
2019-01-31T13:33:50.704Z,996.18
2019-01-31T13:34:56.224Z,996.20
2019-01-31T13:36:54.634Z,996.17
2019-01-31T13:38:00.142Z,996.18
2019-01-31T13:39:58.542Z,996.21
2019-01-31T13:41:04.076Z,996.23
2019-01-31T13:43:03.348Z,996.20
2019-01-31T13:44:08.863Z,996.19
2019-01-31T13:46:07.255Z,996.21
2019-01-31T13:47:12.784Z,996.23
2019-01-31T13:49:11.185Z,996.21
2019-01-31T13:50:16.704Z,996.23
2019-01-31T13:52:15.116Z,996.26
2019-01-31T13:53:20.622Z,996.25
2019-01-31T13:55:19.014Z,996.28
2019-01-31T13:56:24.545Z,996.29
2019-01-31T13:58:23.805Z,996.26
2019-01-31T13:59:29.314Z,996.28
2019-01-31T14:01:27.708Z,996.23
2019-01-31T14:02:33.234Z,996.29
2019-01-31T14:04:31.643Z,996.27
2019-01-31T14:05:37.154Z,996.26
2019-01-31T14:07:35.559Z,996.27
2019-01-31T14:08:41.077Z,996.25
2019-01-31T14:10:39.473Z,996.30
2019-01-31T14:11:44.999Z,996.30
2019-01-31T14:13:43.401Z,996.30
2019-01-31T14:14:48.916Z,996.26
2019-01-31T14:16:48.105Z,996.31
2019-01-31T14:17:52.838Z,996.28
2019-01-31T14:19:51.238Z,996.29
2019-01-31T14:20:56.752Z,996.31
2019-01-31T14:22:55.170Z,996.34
2019-01-31T14:24:00.669Z,996.31
2019-01-31T14:25:59.914Z,996.28
2019-01-31T14:27:05.439Z,996.29
2019-01-31T14:29:03.843Z,996.36
2019-01-31T14:30:09.363Z,996.34
2019-01-31T14:32:07.768Z,996.35
2019-01-31T14:33:13.276Z,996.36
2019-01-31T14:35:11.666Z,996.38
2019-01-31T14:36:17.195Z,996.37
2019-01-31T14:38:15.595Z,996.42
2019-01-31T14:39:21.115Z,996.41
2019-01-31T14:41:19.502Z,996.41
2019-01-31T14:42:25.029Z,996.43
2019-01-31T14:44:23.427Z,996.43
2019-01-31T14:45:30.201Z,996.46
2019-01-31T14:47:27.360Z,996.46
2019-01-31T14:48:32.875Z,996.47
2019-01-31T14:50:31.263Z,996.50
2019-01-31T14:51:36.790Z,996.52
2019-01-31T14:53:35.197Z,996.49
2019-01-31T14:54:40.711Z,996.47
2019-01-31T14:56:39.943Z,996.50
2019-01-31T14:57:45.478Z,996.52
2019-01-31T14:59:43.884Z,996.48
2019-01-31T15:00:49.394Z,996.51
2019-01-31T15:02:47.802Z,996.50
2019-01-31T15:03:53.312Z,996.50
2019-01-31T15:05:51.837Z,996.49
2019-01-31T15:06:57.233Z,996.46
2019-01-31T15:08:55.635Z,996.44
2019-01-31T15:10:01.154Z,996.43
2019-01-31T15:11:59.541Z,996.43
2019-01-31T15:13:05.066Z,996.46
2019-01-31T15:15:03.477Z,996.41
2019-01-31T15:16:08.986Z,996.44
2019-01-31T15:18:07.391Z,996.43
2019-01-31T15:19:12.901Z,996.43
2019-01-31T15:21:11.530Z,996.41
2019-01-31T15:22:17.051Z,996.41
2019-01-31T15:24:15.459Z,996.39
2019-01-31T15:25:20.972Z,996.43
2019-01-31T15:27:19.365Z,996.39
2019-01-31T15:28:24.890Z,996.39
2019-01-31T15:30:23.301Z,996.36
2019-01-31T15:31:28.815Z,996.34
2019-01-31T15:33:27.212Z,996.37
2019-01-31T15:34:33.277Z,996.35
2019-01-31T15:36:31.119Z,996.35
2019-01-31T15:37:36.646Z,996.36
2019-01-31T15:39:35.050Z,996.43
2019-01-31T15:40:40.704Z,996.44
2019-01-31T15:42:38.959Z,996.45
2019-01-31T15:43:44.487Z,996.45
2019-01-31T15:45:42.893Z,996.47
2019-01-31T15:46:48.402Z,996.44
2019-01-31T15:48:46.818Z,996.43
2019-01-31T15:49:52.326Z,996.48
2019-01-31T15:51:50.730Z,996.46
2019-01-31T15:52:56.254Z,996.47
2019-01-31T15:54:54.663Z,996.43
2019-01-31T15:56:00.176Z,996.43
2019-01-31T15:57:59.419Z,996.44
2019-01-31T15:59:04.944Z,996.41
2019-01-31T16:01:03.362Z,996.42
2019-01-31T16:02:08.864Z,996.42
2019-01-31T16:04:07.271Z,996.47
2019-01-31T16:05:19.143Z,996.47
2019-01-31T16:07:11.167Z,996.47
2019-01-31T16:08:16.698Z,996.50
2019-01-31T16:10:15.112Z,996.55
2019-01-31T16:11:20.621Z,996.53
2019-01-31T16:13:19.051Z,996.52
2019-01-31T16:14:24.587Z,996.55
2019-01-31T16:16:22.952Z,996.53
2019-01-31T16:17:28.481Z,996.49
2019-01-31T16:19:26.888Z,996.54
2019-01-31T16:20:32.399Z,996.55
2019-01-31T16:22:30.789Z,996.53
2019-01-31T16:23:36.316Z,996.58
2019-01-31T16:25:34.729Z,996.59
2019-01-31T16:26:40.234Z,996.59
2019-01-31T16:28:38.645Z,996.61
2019-01-31T16:29:44.155Z,996.62
2019-01-31T16:31:42.543Z,996.66
2019-01-31T16:32:48.062Z,996.61
2019-01-31T16:34:46.472Z,996.59
2019-01-31T16:35:53.832Z,996.59
2019-01-31T16:37:50.380Z,996.62
2019-01-31T16:38:55.908Z,996.62
2019-01-31T16:40:54.311Z,996.63
2019-01-31T16:41:59.821Z,996.62
2019-01-31T16:43:58.228Z,996.64
2019-01-31T16:45:06.897Z,996.60
2019-01-31T16:47:02.129Z,996.59
2019-01-31T16:48:07.660Z,996.67
2019-01-31T16:50:06.057Z,996.65
2019-01-31T16:51:11.568Z,996.67
2019-01-31T16:53:09.957Z,996.65
2019-01-31T16:54:16.041Z,996.66
2019-01-31T16:56:13.886Z,996.63
2019-01-31T16:57:19.404Z,996.66
2019-01-31T16:59:17.806Z,996.63
2019-01-31T17:00:23.318Z,996.63
2019-01-31T17:02:21.706Z,996.68
2019-01-31T17:03:27.229Z,996.63
2019-01-31T17:05:26.483Z,996.66
2019-01-31T17:06:31.997Z,996.67
2019-01-31T17:08:30.380Z,996.67
2019-01-31T17:09:35.909Z,996.67
2019-01-31T17:11:34.323Z,996.70
2019-01-31T17:12:39.825Z,996.70
2019-01-31T17:14:38.228Z,996.71
2019-01-31T17:15:43.740Z,996.73
2019-01-31T17:17:42.130Z,996.72
2019-01-31T17:18:47.658Z,996.74
2019-01-31T17:20:46.055Z,996.70
2019-01-31T17:21:51.567Z,996.67
2019-01-31T17:23:49.960Z,996.68
2019-01-31T17:24:55.483Z,996.64
2019-01-31T17:26:53.888Z,996.67
2019-01-31T17:27:59.398Z,996.68
2019-01-31T17:29:57.807Z,996.69
2019-01-31T17:31:03.313Z,996.70
2019-01-31T17:33:01.737Z,996.70
2019-01-31T17:34:07.236Z,996.75
2019-01-31T17:36:05.629Z,996.70
2019-01-31T17:37:11.147Z,996.68
2019-01-31T17:39:09.535Z,996.71
2019-01-31T17:40:15.059Z,996.74
2019-01-31T17:42:13.479Z,996.71
2019-01-31T17:43:18.992Z,996.70
2019-01-31T17:45:17.391Z,996.70
2019-01-31T17:46:22.903Z,996.71
2019-01-31T17:48:21.293Z,996.71
2019-01-31T17:49:26.818Z,996.72
2019-01-31T17:51:25.225Z,996.70
2019-01-31T17:52:30.740Z,996.73
2019-01-31T17:54:29.136Z,996.70
2019-01-31T17:55:34.649Z,996.72
2019-01-31T17:57:33.068Z,996.69
2019-01-31T17:58:38.610Z,996.68
2019-01-31T18:00:37.009Z,996.71
2019-01-31T18:01:42.522Z,996.70
2019-01-31T18:03:40.909Z,996.66
2019-01-31T18:04:46.555Z,996.74
2019-01-31T18:06:44.882Z,996.70
2019-01-31T18:07:50.392Z,996.69
2019-01-31T18:09:48.797Z,996.70
2019-01-31T18:10:54.296Z,996.72
2019-01-31T18:12:52.687Z,996.68
2019-01-31T18:13:58.763Z,996.67
2019-01-31T18:15:56.615Z,996.70
2019-01-31T18:17:02.129Z,996.67
2019-01-31T18:19:00.518Z,996.68
2019-01-31T18:20:06.043Z,996.67
2019-01-31T18:22:04.444Z,996.66
2019-01-31T18:23:09.965Z,996.64
2019-01-31T18:25:08.356Z,996.69
2019-01-31T18:26:13.871Z,996.68
2019-01-31T18:28:12.604Z,996.67
2019-01-31T18:29:17.784Z,996.68
2019-01-31T18:31:16.190Z,996.68
2019-01-31T18:32:21.696Z,996.68
2019-01-31T18:34:20.085Z,996.65
2019-01-31T18:35:25.612Z,996.67
2019-01-31T18:37:24.039Z,996.62
2019-01-31T18:38:29.531Z,996.68
2019-01-31T18:40:28.027Z,996.64
2019-01-31T18:41:33.451Z,996.67
2019-01-31T18:43:31.831Z,996.67
2019-01-31T18:44:37.352Z,996.62
2019-01-31T18:46:35.758Z,996.66
2019-01-31T18:47:41.266Z,996.64
2019-01-31T18:49:39.650Z,996.60
2019-01-31T18:50:45.174Z,996.60
2019-01-31T18:52:43.578Z,996.58
2019-01-31T18:53:49.089Z,996.56
2019-01-31T18:55:47.490Z,996.57
2019-01-31T18:56:53.007Z,996.59
2019-01-31T18:58:51.389Z,996.52
2019-01-31T18:59:56.917Z,996.52
2019-01-31T19:01:55.313Z,996.54
2019-01-31T19:03:00.830Z,996.55
2019-01-31T19:04:59.216Z,996.48
2019-01-31T19:06:04.745Z,996.48
2019-01-31T19:08:05.627Z,996.52
2019-01-31T19:09:08.653Z,996.48